Time;durP1;ratioP1;P1;durP2;ratioP2;P2;SDS_P1;SDS_P2;PMS_P1;PMS_P2;Temp;Humidity;BMP_temperature;BMP_pressure;BME280_temperature;BME280_humidity;BME280_pressure;Samples;Min_cycle;Max_cycle;Signal;HPM_P1;HPM_P2
2022/01/19 00:00:42;;;;;;;28.83;25.97;;;2.80;99.90;;;;;;5056091;28;20466;-70
2022/01/19 00:03:08;;;;;;;29.00;26.27;;;2.70;99.90;;;;;;5057768;28;20475;-70
2022/01/19 00:05:35;;;;;;;27.53;25.13;;;2.60;99.90;;;;;;5055734;28;20491;-69
2022/01/19 00:08:02;;;;;;;27.17;25.07;;;2.60;99.90;;;;;;5052080;28;20463;-68
2022/01/19 00:10:30;;;;;;;28.83;26.20;;;2.60;99.90;;;;;;5056620;28;20463;-68
2022/01/19 00:12:58;;;;;;;27.73;24.77;;;2.70;99.90;;;;;;5060241;28;20489;-69
2022/01/19 00:15:26;;;;;;;26.27;23.87;;;2.80;99.90;;;;;;5054388;28;20833;-69
2022/01/19 00:17:56;;;;;;;27.13;24.73;;;2.80;99.90;;;;;;5056111;28;20954;-69
2022/01/19 00:20:23;;;;;;;27.17;24.67;;;2.80;99.90;;;;;;5046685;28;20459;-68
2022/01/19 00:22:50;;;;;;;27.13;24.83;;;2.80;99.90;;;;;;5056465;28;20474;-69
2022/01/19 00:25:18;;;;;;;27.10;24.70;;;2.80;99.90;;;;;;5062457;28;20520;-69
2022/01/19 00:27:47;;;;;;;28.00;25.50;;;2.80;99.90;;;;;;5061151;28;20466;-69
2022/01/19 00:30:14;;;;;;;26.53;24.30;;;2.80;99.90;;;;;;5059533;28;20467;-69
2022/01/19 00:32:41;;;;;;;27.87;25.57;;;2.90;99.90;;;;;;5058712;28;21201;-70
2022/01/19 00:35:09;;;;;;;29.47;26.57;;;2.90;99.90;;;;;;5053704;28;20466;-68
2022/01/19 00:37:36;;;;;;;28.47;25.83;;;2.90;99.90;;;;;;5059103;28;20517;-69
2022/01/19 00:40:03;;;;;;;28.50;26.00;;;2.90;99.90;;;;;;5063798;28;20470;-68
2022/01/19 00:42:30;;;;;;;30.83;28.10;;;2.90;99.90;;;;;;5054959;28;20472;-69
2022/01/19 00:44:59;;;;;;;31.30;28.40;;;3.00;99.90;;;;;;5060072;28;20490;-69
2022/01/19 00:47:26;;;;;;;31.70;28.60;;;3.00;99.90;;;;;;5053269;28;20456;-69
2022/01/19 00:49:54;;;;;;;32.37;29.57;;;2.90;99.90;;;;;;5052692;28;20460;-68
2022/01/19 00:52:21;;;;;;;33.10;29.00;;;2.90;99.90;;;;;;5060888;28;20467;-69
2022/01/19 00:54:48;;;;;;;32.47;28.83;;;2.90;99.90;;;;;;5060043;28;20577;-69
2022/01/19 00:57:15;;;;;;;33.10;29.70;;;2.80;99.90;;;;;;5053579;28;20478;-68
2022/01/19 00:59:41;;;;;;;29.10;26.20;;;2.80;99.90;;;;;;5054564;28;20470;-68
2022/01/19 01:02:09;;;;;;;30.40;27.63;;;2.80;99.90;;;;;;5057399;28;21124;-69
2022/01/19 01:04:36;;;;;;;30.60;27.97;;;2.70;99.90;;;;;;5059696;28;20546;-69
2022/01/19 01:07:04;;;;;;;29.77;27.40;;;2.60;99.90;;;;;;5056822;28;20484;-68
2022/01/19 01:09:31;;;;;;;30.77;27.50;;;2.50;99.90;;;;;;5053678;28;20477;-68
2022/01/19 01:12:01;;;;;;;31.67;28.63;;;2.40;99.90;;;;;;5064421;28;20482;-70
2022/01/19 01:19:57;;;;;;;34.77;31.23;;;2.20;99.90;;;;;;5059715;28;20463;-68
2022/01/19 01:22:23;;;;;;;33.87;30.83;;;2.20;99.90;;;;;;5052771;28;20566;-69
2022/01/19 01:24:50;;;;;;;34.60;31.30;;;2.20;99.90;;;;;;5045022;28;20482;-69
2022/01/19 01:27:18;;;;;;;31.50;28.30;;;2.20;99.90;;;;;;5054466;28;20884;-69
2022/01/19 01:29:45;;;;;;;32.40;29.10;;;2.20;99.90;;;;;;5055174;28;20555;-69
2022/01/19 01:32:12;;;;;;;32.57;29.20;;;2.00;99.90;;;;;;5053584;28;20494;-69
2022/01/19 01:34:40;;;;;;;36.33;30.83;;;1.90;99.90;;;;;;5054563;28;20465;-70
2022/01/19 01:37:07;;;;;;;36.40;33.07;;;1.80;99.90;;;;;;5046213;28;20466;-68
2022/01/19 01:39:34;;;;;;;36.23;32.90;;;1.90;99.90;;;;;;5055348;28;20470;-69
2022/01/19 01:42:01;;;;;;;35.03;30.43;;;2.10;99.90;;;;;;5059951;28;20479;-68
2022/01/19 01:44:35;;;;;;;33.87;30.67;;;2.30;99.90;;;;;;5058759;28;20535;-68
2022/01/19 01:47:02;;;;;;;33.73;30.37;;;2.40;99.90;;;;;;5053891;28;20531;-68
2022/01/19 01:49:42;;;;;;;33.90;30.80;;;2.50;99.90;;;;;;5059418;28;20554;-70
2022/01/19 01:54:56;;;;;;;35.77;32.40;;;2.50;99.90;;;;;;5054357;28;20578;-69
2022/01/19 01:57:23;;;;;;;34.87;31.33;;;2.40;99.90;;;;;;5061338;28;20459;-69
2022/01/19 01:59:51;;;;;;;35.77;32.23;;;2.30;99.90;;;;;;5058230;28;20549;-69
2022/01/19 02:02:18;;;;;;;37.13;33.33;;;2.30;99.90;;;;;;5057102;28;20619;-69
2022/01/19 02:04:45;;;;;;;36.33;32.60;;;2.20;99.90;;;;;;5045527;28;20471;-69
2022/01/19 02:07:32;;;;;;;36.50;32.70;;;2.10;99.90;;;;;;5054441;28;20496;-69
2022/01/19 02:10:03;;;;;;;35.83;32.00;;;2.00;99.90;;;;;;5055452;28;20463;-69
2022/01/19 02:23:35;;;;;;;35.40;31.80;;;2.00;99.90;;;;;;5050626;28;20458;-68
2022/01/19 02:26:08;;;;;;;38.10;32.80;;;2.00;99.90;;;;;;5052811;28;20494;-69
2022/01/19 02:40:06;;;;;;;44.33;33.83;;;1.90;99.90;;;;;;5049663;28;20517;-69
2022/01/19 02:42:40;;;;;;;41.10;34.30;;;2.00;99.90;;;;;;5011079;28;20458;-67
2022/01/19 02:50:38;;;;;;;43.03;34.73;;;1.90;99.90;;;;;;5048587;28;20457;-68
2022/01/19 02:53:07;;;;;;;46.13;36.60;;;1.80;99.90;;;;;;5052052;28;20474;-68
2022/01/19 02:55:36;;;;;;;44.10;33.60;;;1.90;99.90;;;;;;5060502;28;20501;-68
2022/01/19 02:58:03;;;;;;;37.57;33.57;;;1.90;99.90;;;;;;5056073;28;20467;-67
2022/01/19 03:08:45;;;;;;;35.60;31.77;;;2.00;99.90;;;;;;5049872;28;20505;-68
2022/01/19 03:11:17;;;;;;;33.07;29.77;;;2.00;99.90;;;;;;5044214;28;20467;-68
2022/01/19 03:13:45;;;;;;;39.90;32.30;;;2.10;99.90;;;;;;5055648;28;20465;-68
2022/01/19 03:16:12;;;;;;;34.63;30.93;;;2.20;99.90;;;;;;5050528;28;20451;-68
2022/01/19 03:18:38;;;;;;;38.43;32.63;;;2.30;99.90;;;;;;5052519;28;20470;-68
2022/01/19 03:21:06;;;;;;;40.70;33.90;;;2.40;99.90;;;;;;5054950;28;20450;-68
2022/01/19 03:23:33;;;;;;;44.43;34.87;;;2.50;99.90;;;;;;5055203;28;20795;-68
2022/01/19 03:26:05;;;;;;;38.00;32.90;;;2.70;99.90;;;;;;5054514;28;20508;-68
2022/01/19 03:28:33;;;;;;;41.43;33.20;;;2.70;99.90;;;;;;5053397;28;20468;-68
2022/01/19 03:31:00;;;;;;;43.63;32.63;;;2.70;99.90;;;;;;5050819;28;21093;-67
2022/01/19 03:33:27;;;;;;;41.10;35.50;;;2.80;99.90;;;;;;5052541;28;20456;-68
2022/01/19 03:35:54;;;;;;;40.33;33.90;;;2.70;99.90;;;;;;5050417;28;20988;-68
2022/01/19 03:38:21;;;;;;;43.70;33.40;;;2.80;99.90;;;;;;5056356;28;20467;-68
2022/01/19 03:40:48;;;;;;;41.53;33.13;;;2.90;99.90;;;;;;5053116;28;21423;-68
2022/01/19 03:43:17;;;;;;;38.73;34.47;;;3.00;99.90;;;;;;5056398;28;20514;-68
2022/01/19 03:45:51;;;;;;;40.37;32.80;;;3.10;99.90;;;;;;5055359;28;20793;-68
2022/01/19 03:48:33;;;;;;;38.77;33.33;;;3.10;99.90;;;;;;5055895;28;20995;-68
2022/01/19 03:51:01;;;;;;;35.27;31.53;;;3.10;99.90;;;;;;5047974;28;20460;-68
2022/01/19 03:53:27;;;;;;;37.03;33.07;;;3.20;99.90;;;;;;5055698;28;20470;-68
2022/01/19 03:55:54;;;;;;;33.30;29.70;;;3.20;99.90;;;;;;5059399;28;20467;-68
2022/01/19 03:58:23;;;;;;;34.63;30.93;;;3.20;99.90;;;;;;5055254;28;20467;-68
2022/01/19 04:00:54;;;;;;;35.77;29.90;;;3.20;99.90;;;;;;5057888;28;21107;-68
2022/01/19 04:03:32;;;;;;;35.03;29.83;;;3.20;99.90;;;;;;5052357;28;20472;-68
2022/01/19 04:06:05;;;;;;;35.03;30.20;;;3.20;99.90;;;;;;5054485;28;20579;-68
2022/01/19 04:08:31;;;;;;;32.80;29.60;;;3.20;99.90;;;;;;5056198;28;20931;-68
2022/01/19 04:10:58;;;;;;;32.23;28.93;;;3.30;99.90;;;;;;5060382;28;20464;-68
2022/01/19 04:13:43;;;;;;;37.37;28.13;;;3.30;99.90;;;;;;5054861;28;20918;-68
2022/01/19 04:16:10;;;;;;;32.40;29.00;;;3.30;99.90;;;;;;5056620;28;20459;-68
2022/01/19 04:18:37;;;;;;;33.53;30.00;;;3.30;99.90;;;;;;5062448;28;21147;-68
2022/01/19 04:21:04;;;;;;;35.43;28.27;;;3.30;99.90;;;;;;5066136;28;20542;-68
2022/01/19 04:23:31;;;;;;;33.23;29.97;;;3.40;99.90;;;;;;5062520;28;20463;-69
2022/01/19 04:25:58;;;;;;;32.00;28.93;;;3.40;99.90;;;;;;5056529;28;20462;-68
2022/01/19 04:28:26;;;;;;;33.93;29.07;;;3.40;99.90;;;;;;5060309;28;20485;-68
2022/01/19 04:30:52;;;;;;;32.67;29.40;;;3.40;99.90;;;;;;5051766;28;21185;-68
2022/01/19 04:33:23;;;;;;;31.93;28.00;;;3.40;99.90;;;;;;5056867;28;20466;-68
2022/01/19 04:35:53;;;;;;;31.57;28.30;;;3.50;99.90;;;;;;5061896;28;20660;-68
2022/01/19 05:03:21;;;;;;;30.23;27.27;;;3.70;99.90;;;;;;5033897;28;20536;-69
2022/01/19 05:05:55;;;;;;;32.37;29.03;;;3.70;99.90;;;;;;5045663;28;20527;-68
2022/01/19 05:08:40;;;;;;;30.87;27.80;;;3.70;99.90;;;;;;5039650;28;20831;-68
2022/01/19 05:13:52;;;;;;;28.57;25.77;;;3.70;99.90;;;;;;5055385;28;20541;-69
2022/01/19 05:16:21;;;;;;;35.90;28.87;;;3.70;99.90;;;;;;5033953;28;20474;-70
2022/01/19 05:18:48;;;;;;;28.67;25.87;;;3.70;99.90;;;;;;5033716;28;20463;-69
2022/01/19 05:21:15;;;;;;;30.37;27.17;;;3.70;99.90;;;;;;5033660;28;21097;-69
2022/01/19 05:23:42;;;;;;;29.40;26.60;;;3.80;99.90;;;;;;5033086;28;20470;-69
2022/01/19 05:26:10;;;;;;;29.60;26.43;;;3.70;99.90;;;;;;5033816;28;20467;-69
2022/01/19 05:28:37;;;;;;;30.87;27.73;;;3.70;99.90;;;;;;5032054;28;20478;-69
2022/01/19 05:31:04;;;;;;;29.73;26.50;;;3.70;99.90;;;;;;5033085;28;21247;-70
2022/01/19 05:33:33;;;;;;;30.30;27.23;;;3.80;99.90;;;;;;5031706;28;21023;-69
2022/01/19 05:36:00;;;;;;;31.50;28.20;;;3.80;99.90;;;;;;5033623;28;20449;-69
2022/01/19 05:38:27;;;;;;;31.10;27.90;;;3.80;99.90;;;;;;5033263;28;20962;-69
2022/01/19 05:40:54;;;;;;;29.40;26.40;;;3.90;99.90;;;;;;5033374;28;20475;-69
2022/01/19 05:43:21;;;;;;;30.73;27.57;;;3.80;99.90;;;;;;5031098;28;21214;-70
2022/01/19 05:45:48;;;;;;;29.43;26.43;;;3.90;99.90;;;;;;5028898;28;20473;-70
2022/01/19 05:48:15;;;;;;;28.90;26.00;;;3.90;99.90;;;;;;5033111;28;20495;-70
2022/01/19 05:50:43;;;;;;;28.83;26.03;;;3.90;99.90;;;;;;5033697;28;20479;-70
2022/01/19 05:53:10;;;;;;;30.10;27.20;;;3.90;99.90;;;;;;5032216;28;20452;-70
2022/01/19 05:55:37;;;;;;;30.60;27.30;;;4.00;99.90;;;;;;5032380;28;20834;-70
2022/01/19 05:58:04;;;;;;;32.47;28.23;;;4.00;99.90;;;;;;5033648;28;20816;-70
2022/01/19 06:00:31;;;;;;;29.63;26.43;;;4.00;99.90;;;;;;5032850;28;20466;-70
2022/01/19 06:02:58;;;;;;;29.90;26.80;;;4.00;99.90;;;;;;5031769;28;20720;-70
2022/01/19 06:05:25;;;;;;;31.63;27.87;;;4.00;99.90;;;;;;5033201;28;20491;-70
2022/01/19 06:08:09;;;;;;;30.40;27.20;;;3.90;99.90;;;;;;5032852;28;20494;-70
2022/01/19 06:10:45;;;;;;;30.40;27.27;;;4.00;99.90;;;;;;5033163;28;20475;-70
2022/01/19 06:13:16;;;;;;;29.53;26.60;;;4.10;99.90;;;;;;5032794;28;20490;-70
2022/01/19 06:15:43;;;;;;;29.40;26.37;;;4.10;99.90;;;;;;5032578;28;21079;-70
2022/01/19 06:18:11;;;;;;;29.63;26.63;;;4.10;99.90;;;;;;5033373;28;20455;-70
2022/01/19 06:20:38;;;;;;;28.40;25.63;;;4.10;99.90;;;;;;5032547;28;20464;-70
2022/01/19 06:23:07;;;;;;;29.13;26.13;;;4.10;99.90;;;;;;5030297;28;20544;-70
2022/01/19 06:25:34;;;;;;;30.00;26.20;;;4.20;99.90;;;;;;5032283;28;20470;-69
2022/01/19 06:28:02;;;;;;;31.10;26.43;;;4.10;99.90;;;;;;5032090;28;20488;-70
2022/01/19 06:30:29;;;;;;;29.07;26.30;;;4.20;99.90;;;;;;5031553;28;20454;-69
2022/01/19 06:32:56;;;;;;;29.63;26.60;;;4.10;99.90;;;;;;5031248;28;21207;-70
2022/01/19 06:35:23;;;;;;;28.43;25.50;;;4.10;99.90;;;;;;5031973;28;20471;-70
2022/01/19 06:37:50;;;;;;;28.30;25.53;;;4.10;99.90;;;;;;5032909;28;21114;-70
2022/01/19 06:40:20;;;;;;;29.20;26.30;;;4.10;99.90;;;;;;5032704;28;20455;-70
2022/01/19 06:42:47;;;;;;;27.50;24.90;;;4.20;99.90;;;;;;5028829;28;20480;-70
2022/01/19 06:45:14;;;;;;;27.87;25.20;;;4.30;99.90;;;;;;5030629;28;20459;-70
2022/01/19 06:47:42;;;;;;;28.20;25.27;;;4.20;99.90;;;;;;5032101;28;20557;-70
2022/01/19 06:50:10;;;;;;;28.20;25.50;;;4.20;99.90;;;;;;5030503;28;20459;-70
2022/01/19 06:52:38;;;;;;;27.67;24.87;;;4.30;99.90;;;;;;5031165;28;20506;-70
2022/01/19 06:55:06;;;;;;;28.80;26.00;;;4.30;99.90;;;;;;5040947;28;20569;-69
2022/01/19 06:57:34;;;;;;;29.47;26.57;;;4.20;99.90;;;;;;5034166;28;20470;-70
2022/01/19 07:00:01;;;;;;;29.87;26.80;;;4.30;99.90;;;;;;5027203;28;20848;-70
2022/01/19 07:02:29;;;;;;;27.57;24.83;;;4.30;99.90;;;;;;5025343;28;20474;-70
2022/01/19 07:04:56;;;;;;;27.90;25.50;;;4.30;99.90;;;;;;5028699;28;20993;-70
2022/01/19 07:07:22;;;;;;;27.77;25.17;;;4.30;99.90;;;;;;5028812;28;20580;-70
2022/01/19 07:09:49;;;;;;;28.60;25.80;;;4.30;99.90;;;;;;5026389;28;20455;-70
2022/01/19 07:12:17;;;;;;;26.63;24.33;;;4.30;99.90;;;;;;5026188;28;20494;-70
2022/01/19 07:14:45;;;;;;;28.13;25.33;;;4.30;99.90;;;;;;5026542;28;20455;-70
2022/01/19 07:17:12;;;;;;;27.30;24.90;;;4.30;99.90;;;;;;5026798;28;21036;-70
2022/01/19 07:19:39;;;;;;;28.77;25.87;;;4.30;99.90;;;;;;5027261;28;20463;-70
2022/01/19 07:22:06;;;;;;;28.90;25.90;;;4.30;99.90;;;;;;5061876;28;20460;-70
2022/01/19 07:24:33;;;;;;;30.27;27.40;;;4.20;99.90;;;;;;5042113;28;21108;-70
2022/01/19 07:27:00;;;;;;;28.30;25.50;;;4.20;99.90;;;;;;5028288;28;20512;-70
2022/01/19 07:29:27;;;;;;;28.93;26.10;;;4.30;99.90;;;;;;5030240;28;20475;-70
2022/01/19 07:31:57;;;;;;;28.67;25.97;;;4.20;99.90;;;;;;5029368;28;20474;-70
2022/01/19 07:34:25;;;;;;;28.00;25.40;;;4.30;99.90;;;;;;5033216;28;20462;-70
2022/01/19 07:36:53;;;;;;;29.67;26.67;;;4.20;99.90;;;;;;5034082;28;20950;-70
2022/01/19 07:39:20;;;;;;;29.63;26.40;;;4.30;99.90;;;;;;5032344;28;20513;-70
2022/01/19 07:41:46;;;;;;;30.30;26.27;;;4.20;99.90;;;;;;5032084;28;20962;-70
2022/01/19 07:44:14;;;;;;;29.23;26.60;;;4.20;99.90;;;;;;5030269;28;20470;-70
2022/01/19 07:46:41;;;;;;;30.13;27.33;;;4.20;99.90;;;;;;5046620;28;20468;-70
2022/01/19 07:49:09;;;;;;;28.63;25.97;;;4.20;99.90;;;;;;5039731;28;20469;-70
2022/01/19 07:51:36;;;;;;;30.23;27.40;;;4.30;99.90;;;;;;5029760;28;21514;-70
2022/01/19 07:54:03;;;;;;;29.70;26.70;;;4.40;99.90;;;;;;5028045;28;20454;-70
2022/01/19 07:56:29;;;;;;;27.60;25.00;;;4.40;99.90;;;;;;5028791;28;20458;-70
2022/01/19 07:58:56;;;;;;;31.87;28.57;;;4.40;99.90;;;;;;5030168;28;20458;-70
2022/01/19 08:01:23;;;;;;;32.60;29.27;;;4.50;99.90;;;;;;5048183;28;20579;-70
2022/01/19 08:03:50;;;;;;;31.60;28.50;;;4.40;99.90;;;;;;5051524;28;20547;-69
2022/01/19 08:06:18;;;;;;;30.47;27.47;;;4.40;99.90;;;;;;5050641;28;20479;-70
2022/01/19 08:08:45;;;;;;;29.50;26.40;;;4.50;99.90;;;;;;5034660;28;20476;-70
2022/01/19 08:11:12;;;;;;;29.53;26.83;;;4.40;99.90;;;;;;5007551;28;20498;-70
2022/01/19 08:13:38;;;;;;;27.53;24.93;;;4.40;99.90;;;;;;5027647;28;21218;-69
2022/01/19 08:16:06;;;;;;;28.50;25.70;;;4.40;99.90;;;;;;5025782;28;20467;-71
2022/01/19 08:18:32;;;;;;;28.40;25.30;;;4.40;99.90;;;;;;5021787;28;20984;-69
2022/01/19 08:20:59;;;;;;;26.60;23.97;;;4.40;99.90;;;;;;5032294;28;20463;-69
2022/01/19 08:23:27;;;;;;;28.53;25.97;;;4.30;99.90;;;;;;5042303;28;20841;-69
2022/01/19 08:25:54;;;;;;;27.90;25.33;;;4.20;99.90;;;;;;5028273;28;20798;-70
2022/01/19 08:28:21;;;;;;;28.47;25.27;;;4.30;99.90;;;;;;5024384;28;20487;-70
2022/01/19 08:30:48;;;;;;;30.07;26.97;;;4.40;99.90;;;;;;5024515;28;20471;-71
2022/01/19 08:33:15;;;;;;;29.63;26.63;;;4.50;99.90;;;;;;5028473;28;20472;-70
2022/01/19 08:35:42;;;;;;;29.27;26.60;;;4.50;99.90;;;;;;5026992;28;20472;-70
2022/01/19 08:38:09;;;;;;;28.93;26.17;;;4.50;99.90;;;;;;5023400;28;20504;-70
2022/01/19 08:40:37;;;;;;;30.40;27.37;;;4.60;99.90;;;;;;5026699;28;20505;-71
2022/01/19 08:43:05;;;;;;;28.30;25.70;;;4.70;99.90;;;;;;5028699;28;20498;-70
2022/01/19 08:45:32;;;;;;;30.43;27.37;;;4.70;99.90;;;;;;5027261;28;20495;-70
2022/01/19 08:47:59;;;;;;;28.60;25.90;;;4.70;99.90;;;;;;5026717;28;20531;-71
2022/01/19 08:50:27;;;;;;;29.83;27.03;;;4.70;99.90;;;;;;5028471;28;21123;-69
2022/01/19 08:52:53;;;;;;;28.67;25.87;;;4.70;99.90;;;;;;5028177;28;20471;-70
2022/01/19 08:55:21;;;;;;;29.20;26.40;;;4.60;99.90;;;;;;5029231;28;20469;-71
2022/01/19 08:57:50;;;;;;;31.17;27.97;;;4.40;99.90;;;;;;5028939;28;20466;-68
2022/01/19 09:00:19;;;;;;;28.10;25.70;;;4.50;99.90;;;;;;5027634;28;20550;-68
2022/01/19 09:02:46;;;;;;;29.33;26.43;;;4.50;99.90;;;;;;5027209;28;20635;-69
2022/01/19 09:05:13;;;;;;;38.07;30.93;;;4.60;99.90;;;;;;5026371;28;20543;-71
2022/01/19 09:07:40;;;;;;;33.57;28.47;;;4.70;99.90;;;;;;5028238;28;20484;-70
2022/01/19 09:10:09;;;;;;;33.23;28.70;;;4.80;99.90;;;;;;5028665;28;20493;-69
2022/01/19 09:12:36;;;;;;;29.40;26.40;;;4.90;99.90;;;;;;5028675;28;20487;-70
2022/01/19 09:15:05;;;;;;;29.50;26.60;;;4.90;99.90;;;;;;5028585;28;20475;-69
2022/01/19 09:17:32;;;;;;;28.87;25.90;;;4.90;99.90;;;;;;5028299;28;20477;-68
2022/01/19 09:19:59;;;;;;;30.20;27.23;;;5.00;99.90;;;;;;5027664;28;21040;-69
2022/01/19 09:22:26;;;;;;;26.97;24.50;;;5.00;99.90;;;;;;5027738;28;20519;-71
2022/01/19 09:24:52;;;;;;;29.97;26.97;;;5.00;99.90;;;;;;5027942;28;20486;-70
2022/01/19 09:27:21;;;;;;;29.33;26.50;;;5.00;99.90;;;;;;5027829;28;20477;-71
2022/01/19 09:29:48;;;;;;;29.53;26.50;;;5.00;99.90;;;;;;5027334;28;20554;-69
2022/01/19 09:32:17;;;;;;;29.90;27.10;;;5.10;99.90;;;;;;5027382;28;21000;-70
2022/01/19 09:34:49;;;;;;;29.63;26.70;;;5.10;99.90;;;;;;5025362;28;20506;-69
2022/01/19 09:37:17;;;;;;;34.27;28.50;;;5.10;99.90;;;;;;5027510;28;20476;-69
2022/01/19 09:39:44;;;;;;;31.33;28.40;;;5.20;99.90;;;;;;5026504;28;20463;-69
2022/01/19 09:42:11;;;;;;;32.60;29.20;;;5.20;99.90;;;;;;5027930;28;20498;-69
2022/01/19 09:44:38;;;;;;;31.73;28.33;;;5.30;99.90;;;;;;5028138;28;20467;-69
2022/01/19 09:47:06;;;;;;;29.70;26.80;;;5.30;99.90;;;;;;5027954;28;20615;-69
2022/01/19 09:49:34;;;;;;;28.43;25.73;;;5.30;99.90;;;;;;5026614;28;20489;-69
2022/01/19 09:52:02;;;;;;;30.03;27.10;;;5.30;99.90;;;;;;5027421;28;21345;-69
2022/01/19 09:54:30;;;;;;;30.93;27.93;;;5.20;99.90;;;;;;5026948;28;20459;-69
2022/01/19 09:56:57;;;;;;;29.83;26.93;;;5.20;99.90;;;;;;5025694;28;21115;-69
2022/01/19 09:59:24;;;;;;;30.20;26.97;;;5.20;99.90;;;;;;5027188;28;20797;-69
2022/01/19 10:01:53;;;;;;;29.73;26.93;;;5.10;99.90;;;;;;5026134;28;20488;-69
2022/01/19 10:04:22;;;;;;;29.47;26.77;;;5.30;99.90;;;;;;5022577;28;21125;-69
2022/01/19 10:06:50;;;;;;;31.33;28.43;;;5.50;99.90;;;;;;5027478;28;20998;-69
2022/01/19 10:09:25;;;;;;;29.07;26.57;;;5.50;99.90;;;;;;5045512;28;20494;-69
2022/01/19 10:17:29;;;;;;;30.47;27.27;;;5.60;99.90;;;;;;5026410;28;20549;-69
2022/01/19 10:19:56;;;;;;;30.87;27.80;;;5.70;99.90;;;;;;5027393;28;20471;-69
2022/01/19 10:22:25;;;;;;;31.60;28.27;;;5.80;99.90;;;;;;5025833;28;20465;-69
2022/01/19 10:24:54;;;;;;;31.60;28.33;;;5.90;99.90;;;;;;5026610;28;21237;-69
2022/01/19 10:27:30;;;;;;;32.10;28.80;;;6.00;99.90;;;;;;5025122;28;20943;-69
2022/01/19 10:30:18;;;;;;;30.13;27.30;;;6.00;99.90;;;;;;5026313;28;20508;-69
2022/01/19 10:32:49;;;;;;;33.73;27.93;;;6.00;99.90;;;;;;5026625;28;21137;-69
2022/01/19 10:35:20;;;;;;;30.60;27.40;;;6.00;99.90;;;;;;5026987;28;20473;-70
2022/01/19 10:37:50;;;;;;;37.63;28.63;;;6.00;99.90;;;;;;5026501;28;20554;-69
2022/01/19 10:40:19;;;;;;;29.97;26.83;;;6.10;99.90;;;;;;5026886;28;20465;-69
2022/01/19 10:42:47;;;;;;;30.17;27.27;;;5.90;99.90;;;;;;5026026;28;20494;-70
2022/01/19 10:45:15;;;;;;;30.13;27.13;;;6.00;99.90;;;;;;5025868;28;20464;-69
2022/01/19 10:47:45;;;;;;;28.80;26.10;;;6.00;99.90;;;;;;5023591;28;20491;-70
2022/01/19 10:50:14;;;;;;;29.07;26.37;;;6.00;99.90;;;;;;5024626;28;20482;-72
2022/01/19 10:52:43;;;;;;;30.10;26.90;;;6.00;99.90;;;;;;5021941;28;20475;-71
2022/01/19 10:55:13;;;;;;;30.27;27.17;;;5.90;99.90;;;;;;5024606;28;20922;-70
2022/01/19 10:57:43;;;;;;;30.90;27.73;;;5.90;99.90;;;;;;5023593;28;20543;-70
2022/01/19 11:00:15;;;;;;;29.73;26.73;;;5.90;99.90;;;;;;5031409;28;20468;-71
2022/01/19 11:02:43;;;;;;;28.20;25.50;;;5.90;99.90;;;;;;5024868;28;20485;-70
2022/01/19 11:05:10;;;;;;;29.37;26.57;;;5.80;99.90;;;;;;5024143;28;20462;-71
2022/01/19 11:07:39;;;;;;;30.13;27.17;;;5.80;99.90;;;;;;5026958;28;20996;-69
2022/01/19 11:10:13;;;;;;;30.17;27.47;;;5.80;99.90;;;;;;5030528;28;20506;-69
2022/01/19 11:12:47;;;;;;;29.13;26.27;;;5.80;99.90;;;;;;5027481;28;20510;-69
2022/01/19 11:15:17;;;;;;;27.90;25.43;;;5.70;99.90;;;;;;5028843;28;20459;-69
2022/01/19 11:17:44;;;;;;;29.13;26.40;;;5.70;99.90;;;;;;5030270;28;20589;-69
2022/01/19 11:20:13;;;;;;;30.43;27.50;;;5.80;99.90;;;;;;5029358;28;20477;-70
2022/01/19 11:22:50;;;;;;;28.23;25.70;;;5.80;99.90;;;;;;5029507;28;20466;-69
2022/01/19 11:25:25;;;;;;;30.70;27.87;;;5.70;99.90;;;;;;5028539;28;20465;-70
2022/01/19 11:27:54;;;;;;;32.13;28.70;;;5.70;99.90;;;;;;5028962;28;20463;-69
2022/01/19 11:30:24;;;;;;;30.90;27.97;;;5.60;99.90;;;;;;5029598;28;20467;-69
2022/01/19 11:33:14;;;;;;;30.93;27.80;;;5.50;99.90;;;;;;5027073;28;20848;-69
2022/01/19 11:35:43;;;;;;;29.90;27.20;;;5.60;99.90;;;;;;5020561;28;20459;-69
2022/01/19 11:38:37;;;;;;;30.27;27.40;;;5.50;99.90;;;;;;5027463;28;20475;-69
2022/01/19 11:41:20;;;;;;;30.43;27.53;;;5.50;99.90;;;;;;5025698;28;21143;-69
2022/01/19 11:43:52;;;;;;;30.43;27.63;;;5.60;99.90;;;;;;5026312;28;20476;-69
2022/01/19 11:46:27;;;;;;;31.30;28.00;;;5.70;99.90;;;;;;5027830;28;20474;-69
2022/01/19 11:48:55;;;;;;;31.33;28.50;;;5.70;99.90;;;;;;5029080;28;20501;-69
2022/01/19 11:51:28;;;;;;;29.20;26.57;;;5.60;99.90;;;;;;5028994;28;20476;-69
2022/01/19 11:54:07;;;;;;;32.03;28.67;;;5.70;99.90;;;;;;5025705;28;20471;-69
2022/01/19 11:56:59;;;;;;;32.07;28.97;;;5.40;99.90;;;;;;5023418;28;20481;-69
2022/01/19 11:59:30;;;;;;;39.90;31.23;;;5.30;99.90;;;;;;5025282;28;20468;-69
2022/01/19 12:02:36;;;;;;;30.27;27.20;;;5.30;99.90;;;;;;5027242;28;20494;-69
2022/01/19 12:05:16;;;;;;;31.50;28.30;;;5.30;99.90;;;;;;5027148;28;21302;-69
2022/01/19 12:07:44;;;;;;;31.43;28.40;;;5.20;99.90;;;;;;5026605;28;21282;-69
2022/01/19 12:10:14;;;;;;;30.93;28.03;;;5.10;99.90;;;;;;5028490;28;20850;-69
2022/01/19 12:12:47;;;;;;;32.30;29.20;;;5.20;99.90;;;;;;5026272;28;20489;-69
2022/01/19 12:15:53;;;;;;;32.30;29.07;;;5.30;99.90;;;;;;5025393;28;20489;-69
2022/01/19 12:18:44;;;;;;;32.47;29.07;;;5.40;99.90;;;;;;5021599;28;20589;-69
2022/01/19 12:21:12;;;;;;;32.57;29.13;;;5.60;99.90;;;;;;5028831;28;20465;-69
2022/01/19 12:23:42;;;;;;;31.33;28.03;;;5.60;99.90;;;;;;5046323;28;20463;-70
2022/01/19 12:26:10;;;;;;;30.13;27.10;;;5.50;99.90;;;;;;5025497;28;20466;-70
2022/01/19 12:28:42;;;;;;;31.60;28.30;;;5.60;99.90;;;;;;5026978;28;21128;-70
2022/01/19 12:31:33;;;;;;;31.17;28.00;;;5.40;99.90;;;;;;5027191;28;20455;-71
2022/01/19 12:34:23;;;;;;;29.00;26.20;;;5.50;99.90;;;;;;5027333;28;20463;-69
2022/01/19 12:36:54;;;;;;;31.00;28.00;;;5.20;99.90;;;;;;5026328;28;20698;-70
2022/01/19 12:39:41;;;;;;;31.07;28.00;;;5.20;99.90;;;;;;5027947;28;20534;-70
2022/01/19 12:42:13;;;;;;;30.53;27.70;;;5.40;99.90;;;;;;5043806;28;21125;-70
2022/01/19 12:44:43;;;;;;;31.67;28.57;;;5.60;99.90;;;;;;5054259;28;20459;-71
2022/01/19 12:47:44;;;;;;;31.90;28.87;;;5.60;99.90;;;;;;5039184;28;20952;-70
2022/01/19 12:50:47;;;;;;;32.57;29.17;;;5.40;99.90;;;;;;5015672;28;20519;-71
2022/01/19 12:53:25;;;;;;;31.50;28.17;;;5.40;99.90;;;;;;5011170;28;21063;-70
2022/01/19 12:55:56;;;;;;;33.00;29.50;;;5.40;99.90;;;;;;5028295;28;20846;-69
2022/01/19 12:58:29;;;;;;;32.77;28.70;;;5.50;99.90;;;;;;5027559;28;20930;-69
2022/01/19 13:01:00;;;;;;;31.20;28.07;;;5.60;99.90;;;;;;5026741;28;20463;-70
2022/01/19 13:03:30;;;;;;;32.37;28.87;;;5.60;99.90;;;;;;5024417;28;20609;-69
2022/01/19 13:06:02;;;;;;;31.53;28.27;;;5.60;99.90;;;;;;5026175;28;20560;-71
2022/01/19 13:08:45;;;;;;;29.83;27.03;;;5.50;99.90;;;;;;5026278;28;20479;-68
2022/01/19 13:11:30;;;;;;;32.17;28.87;;;5.60;99.90;;;;;;5025154;28;20525;-69
2022/01/19 13:14:00;;;;;;;31.93;28.53;;;5.60;99.90;;;;;;5026036;28;20472;-71
2022/01/19 13:16:47;;;;;;;32.43;28.87;;;5.50;99.90;;;;;;5026540;28;20988;-69
2022/01/19 13:19:17;;;;;;;32.57;29.17;;;5.30;99.90;;;;;;5028301;28;20565;-70
2022/01/19 13:21:48;;;;;;;31.07;27.93;;;5.20;99.90;;;;;;5027359;28;20470;-70
2022/01/19 13:24:20;;;;;;;31.53;28.13;;;5.30;99.90;;;;;;5028361;28;20567;-70
2022/01/19 13:26:50;;;;;;;32.43;28.10;;;5.30;99.90;;;;;;5027375;28;20468;-70
2022/01/19 13:29:26;;;;;;;33.70;30.37;;;5.10;99.90;;;;;;5026079;28;20496;-68
2022/01/19 13:31:59;;;;;;;30.47;27.47;;;5.00;99.90;;;;;;5018568;28;20547;-71
2022/01/19 13:34:27;;;;;;;37.13;29.73;;;4.90;99.90;;;;;;5021708;28;20472;-70
2022/01/19 13:36:59;;;;;;;39.80;30.10;;;4.90;99.90;;;;;;5026415;28;20848;-70
2022/01/19 13:39:28;;;;;;;40.70;32.47;;;4.70;99.90;;;;;;5026325;28;20518;-69
2022/01/19 13:41:58;;;;;;;34.47;30.67;;;4.70;99.90;;;;;;5026049;28;20467;-71
2022/01/19 13:44:32;;;;;;;38.10;28.93;;;4.70;99.90;;;;;;5026736;28;20465;-70
2022/01/19 13:47:10;;;;;;;34.37;29.17;;;4.70;99.90;;;;;;5026392;28;20882;-69
2022/01/19 13:49:37;;;;;;;36.03;31.30;;;4.60;99.90;;;;;;5023480;28;20526;-70
2022/01/19 13:52:06;;;;;;;39.33;33.47;;;4.70;99.90;;;;;;5023299;28;20462;-70
2022/01/19 13:54:37;;;;;;;37.77;31.13;;;4.60;99.90;;;;;;5026648;28;20621;-68
2022/01/19 13:57:05;;;;;;;34.03;30.20;;;4.50;99.90;;;;;;5026728;28;20459;-68
2022/01/19 13:59:31;;;;;;;40.10;33.23;;;4.50;99.90;;;;;;5026422;28;20878;-69
2022/01/19 14:02:00;;;;;;;35.47;31.63;;;4.50;99.90;;;;;;5026494;28;20482;-70
2022/01/19 14:04:28;;;;;;;37.57;32.90;;;4.50;99.90;;;;;;5027147;28;20475;-70
2022/01/19 14:07:03;;;;;;;35.77;31.70;;;4.50;99.90;;;;;;5026764;28;20534;-69